createdAt,value
2017-07-09T00:00:22.669Z,1018.21
2017-07-09T00:00:48.224Z,1018.22
2017-07-09T00:01:13.786Z,1018.23
2017-07-09T00:01:39.401Z,1018.25
2017-07-09T00:02:04.968Z,1018.21
2017-07-09T00:02:30.546Z,1018.21
2017-07-09T00:02:56.099Z,1018.2
2017-07-09T00:03:21.661Z,1018.22
2017-07-09T00:03:47.219Z,1018.19
2017-07-09T00:04:12.836Z,1018.2
2017-07-09T00:04:38.400Z,1018.22
2017-07-09T00:05:03.957Z,1018.24
2017-07-09T00:05:29.535Z,1018.22
2017-07-09T00:05:55.104Z,1018.19
2017-07-09T00:06:20.675Z,1018.2
2017-07-09T00:06:46.328Z,1018.19
2017-07-09T00:07:11.886Z,1018.16
2017-07-09T00:07:37.442Z,1018.17
2017-07-09T00:08:03.061Z,1018.13
2017-07-09T00:08:28.652Z,1018.18
2017-07-09T00:08:54.195Z,1018.12
2017-07-09T00:09:19.757Z,1018.17
2017-07-09T00:09:45.427Z,1018.11
2017-07-09T00:10:10.998Z,1018.13
2017-07-09T00:10:36.554Z,1018.13
2017-07-09T00:11:02.107Z,1018.11
2017-07-09T00:11:27.693Z,1018.15
2017-07-09T00:11:53.272Z,1018.1
2017-07-09T00:12:18.858Z,1018.07
2017-07-09T00:12:44.418Z,1018.1
2017-07-09T00:13:09.990Z,1018.07
2017-07-09T00:13:35.548Z,1018.08
2017-07-09T00:14:01.111Z,1018.08
2017-07-09T00:14:26.669Z,1018.09
2017-07-09T00:14:52.238Z,1018.09
2017-07-09T00:15:17.800Z,1018.01
2017-07-09T00:15:43.371Z,1018.04
2017-07-09T00:16:09.085Z,1018.02
2017-07-09T00:16:34.661Z,1018.04
2017-07-09T00:17:00.243Z,1018.01
2017-07-09T00:17:25.797Z,1018.01
2017-07-09T00:17:51.360Z,1017.96
2017-07-09T00:18:16.918Z,1017.97
2017-07-09T00:18:42.474Z,1017.97
2017-07-09T00:19:08.039Z,1017.98
2017-07-09T00:19:33.597Z,1017.95
2017-07-09T00:19:59.152Z,1017.95
2017-07-09T00:20:24.738Z,1018.01
2017-07-09T00:20:50.296Z,1017.94
2017-07-09T00:21:15.862Z,1017.96
2017-07-09T00:21:41.456Z,1017.93
2017-07-09T00:22:07.013Z,1017.93
2017-07-09T00:22:32.588Z,1017.93
2017-07-09T00:22:58.187Z,1017.93
2017-07-09T00:23:23.786Z,1017.93
2017-07-09T00:23:49.365Z,1017.9
2017-07-09T00:24:14.920Z,1017.96
2017-07-09T00:24:40.494Z,1017.92
2017-07-09T00:25:06.133Z,1017.93
2017-07-09T00:25:31.714Z,1017.89
2017-07-09T00:25:57.271Z,1017.88
2017-07-09T00:26:22.844Z,1017.9
2017-07-09T00:26:48.443Z,1017.93
2017-07-09T00:27:14.013Z,1017.93
2017-07-09T00:27:39.590Z,1017.87
2017-07-09T00:28:05.206Z,1017.9
2017-07-09T00:28:30.769Z,1017.88
2017-07-09T00:28:56.357Z,1017.93
2017-07-09T00:29:21.923Z,1017.93
2017-07-09T00:29:47.510Z,1017.9
2017-07-09T00:30:13.088Z,1017.9
2017-07-09T00:30:38.683Z,1017.9
2017-07-09T00:31:04.258Z,1017.86
2017-07-09T00:31:29.815Z,1017.86
2017-07-09T00:31:55.465Z,1017.88
2017-07-09T00:32:21.026Z,1017.87
2017-07-09T00:32:46.583Z,1017.91
2017-07-09T00:33:12.155Z,1017.91
2017-07-09T00:33:37.792Z,1017.94
2017-07-09T00:34:03.350Z,1017.94
2017-07-09T00:34:28.890Z,1017.93
2017-07-09T00:34:54.448Z,1017.92
2017-07-09T00:35:20.020Z,1017.94
2017-07-09T00:35:45.593Z,1017.89
2017-07-09T00:36:11.158Z,1017.89
2017-07-09T00:36:36.718Z,1017.88
2017-07-09T00:37:02.305Z,1017.88
2017-07-09T00:37:27.887Z,1017.89
2017-07-09T00:37:53.447Z,1017.9
2017-07-09T00:38:19.073Z,1017.88
2017-07-09T00:38:44.640Z,1017.93
2017-07-09T00:39:10.211Z,1017.92
2017-07-09T00:39:35.788Z,1017.9
2017-07-09T00:40:01.410Z,1017.9
2017-07-09T00:40:26.944Z,1017.9
2017-07-09T00:40:52.518Z,1017.89
2017-07-09T00:41:18.098Z,1017.89
2017-07-09T00:41:43.656Z,1017.91
2017-07-09T00:42:09.226Z,1017.91
2017-07-09T00:42:34.795Z,1017.92
2017-07-09T00:43:00.360Z,1017.92
2017-07-09T00:43:25.917Z,1017.91
2017-07-09T00:43:51.461Z,1017.95
2017-07-09T00:44:17.094Z,1017.94
2017-07-09T00:44:42.675Z,1017.95
2017-07-09T00:45:08.248Z,1017.94
2017-07-09T00:45:33.816Z,1017.95
2017-07-09T00:45:59.413Z,1017.96
2017-07-09T00:46:25.114Z,1017.93
2017-07-09T00:46:50.697Z,1017.99
2017-07-09T00:47:16.235Z,1017.98
2017-07-09T00:47:41.783Z,1017.96
2017-07-09T00:48:07.347Z,1017.97
2017-07-09T00:48:32.921Z,1017.96
2017-07-09T00:48:58.570Z,1017.95
2017-07-09T00:49:24.152Z,1017.91
2017-07-09T00:49:49.778Z,1017.92
2017-07-09T00:50:15.356Z,1017.89
2017-07-09T00:50:40.922Z,1017.89
2017-07-09T00:51:06.477Z,1017.88
2017-07-09T00:51:32.069Z,1017.87
2017-07-09T00:51:57.642Z,1017.87
2017-07-09T00:52:23.197Z,1017.9
2017-07-09T00:52:48.777Z,1017.88
2017-07-09T00:53:14.451Z,1017.91
2017-07-09T00:53:40.004Z,1017.9
2017-07-09T00:54:05.566Z,1017.9
2017-07-09T00:54:31.147Z,1017.89
2017-07-09T00:54:56.696Z,1017.94
2017-07-09T00:55:22.312Z,1017.92
2017-07-09T00:55:47.888Z,1017.9
2017-07-09T00:56:13.453Z,1017.9
2017-07-09T00:56:39.017Z,1017.92
2017-07-09T00:57:04.589Z,1017.85
2017-07-09T00:57:30.151Z,1017.91
2017-07-09T00:57:55.718Z,1017.87
2017-07-09T00:58:21.272Z,1017.85
2017-07-09T00:58:46.834Z,1017.85
2017-07-09T00:59:12.389Z,1017.83
2017-07-09T00:59:38.065Z,1017.86
2017-07-09T01:00:03.638Z,1017.86
2017-07-09T01:00:29.199Z,1017.88
2017-07-09T01:00:54.771Z,1017.89
2017-07-09T01:01:20.350Z,1017.89
2017-07-09T01:01:45.918Z,1017.85
2017-07-09T01:02:11.506Z,1017.84
2017-07-09T01:02:37.088Z,1017.88
2017-07-09T01:03:02.651Z,1017.81
2017-07-09T01:03:28.227Z,1017.81
2017-07-09T01:03:53.840Z,1017.81
2017-07-09T01:04:19.397Z,1017.87
2017-07-09T01:04:44.968Z,1017.89
2017-07-09T01:05:10.515Z,1017.86
2017-07-09T01:05:36.082Z,1017.83
2017-07-09T01:06:01.645Z,1017.82
2017-07-09T01:06:27.217Z,1017.85
2017-07-09T01:06:52.807Z,1017.86
2017-07-09T01:07:18.428Z,1017.84
2017-07-09T01:07:43.941Z,1017.84
2017-07-09T01:08:09.575Z,1017.87
2017-07-09T01:08:35.188Z,1017.83
2017-07-09T01:09:00.747Z,1017.84
2017-07-09T01:09:26.319Z,1017.86
2017-07-09T01:09:51.875Z,1017.85
2017-07-09T01:10:17.447Z,1017.9
2017-07-09T01:10:43.007Z,1017.89
2017-07-09T01:11:08.605Z,1017.89
2017-07-09T01:11:34.158Z,1017.9
2017-07-09T01:11:59.747Z,1017.9
2017-07-09T01:12:25.319Z,1017.9
2017-07-09T01:12:50.894Z,1017.94
2017-07-09T01:13:16.471Z,1017.91
2017-07-09T01:13:42.040Z,1017.91
2017-07-09T01:14:07.578Z,1017.9
2017-07-09T01:14:33.143Z,1017.91
2017-07-09T01:14:58.713Z,1017.95
2017-07-09T01:15:24.284Z,1017.93
2017-07-09T01:15:49.848Z,1017.93
2017-07-09T01:16:15.433Z,1017.92
2017-07-09T01:16:40.994Z,1017.9
2017-07-09T01:17:06.650Z,1017.9
2017-07-09T01:17:32.207Z,1017.92
2017-07-09T01:17:57.771Z,1017.94
2017-07-09T01:18:23.360Z,1017.95
2017-07-09T01:18:48.905Z,1017.91
2017-07-09T01:19:14.497Z,1017.95
2017-07-09T01:19:40.065Z,1017.95
2017-07-09T01:20:05.638Z,1017.94
2017-07-09T01:20:31.208Z,1017.95
2017-07-09T01:20:56.807Z,1017.93
2017-07-09T01:21:22.376Z,1017.93
2017-07-09T01:21:47.934Z,1017.92
2017-07-09T01:22:13.503Z,1017.94
2017-07-09T01:22:39.059Z,1017.91
2017-07-09T01:23:04.629Z,1017.94
2017-07-09T01:23:30.199Z,1017.87
2017-07-09T01:23:55.762Z,1017.89
2017-07-09T01:24:21.326Z,1017.88
2017-07-09T01:24:46.884Z,1017.88
2017-07-09T01:25:12.455Z,1017.87
2017-07-09T01:25:38.004Z,1017.89
2017-07-09T01:26:03.626Z,1017.88
2017-07-09T01:26:29.525Z,1017.87
2017-07-09T01:26:55.093Z,1017.89
2017-07-09T01:27:20.666Z,1017.85
2017-07-09T01:27:46.228Z,1017.88
2017-07-09T01:28:11.785Z,1017.86
2017-07-09T01:28:37.338Z,1017.89
2017-07-09T01:29:02.959Z,1017.85
2017-07-09T01:29:28.637Z,1017.85
2017-07-09T01:29:54.193Z,1017.84
2017-07-09T01:30:19.753Z,1017.87
2017-07-09T01:30:45.325Z,1017.85
2017-07-09T01:31:10.884Z,1017.9
2017-07-09T01:31:36.449Z,1017.89
2017-07-09T01:32:02.006Z,1017.88
2017-07-09T01:32:27.573Z,1017.93
2017-07-09T01:32:53.123Z,1017.89
2017-07-09T01:33:18.670Z,1017.89
2017-07-09T01:33:44.338Z,1017.9
2017-07-09T01:34:09.912Z,1017.9
2017-07-09T01:34:35.475Z,1017.88
2017-07-09T01:35:01.049Z,1017.88
2017-07-09T01:35:26.626Z,1017.87
2017-07-09T01:35:52.196Z,1017.9
2017-07-09T01:36:17.756Z,1017.86
2017-07-09T01:36:43.346Z,1017.87
2017-07-09T01:37:08.916Z,1017.84
2017-07-09T01:37:34.562Z,1017.8
2017-07-09T01:38:00.138Z,1017.84
2017-07-09T01:38:25.701Z,1017.81
2017-07-09T01:38:52.213Z,1017.78
2017-07-09T01:39:16.811Z,1017.8
2017-07-09T01:39:42.387Z,1017.79
2017-07-09T01:40:08.050Z,1017.79
2017-07-09T01:40:33.604Z,1017.76
2017-07-09T01:40:59.178Z,1017.79
2017-07-09T01:41:24.736Z,1017.78
2017-07-09T01:41:50.305Z,1017.76
2017-07-09T01:42:15.848Z,1017.79
2017-07-09T01:42:41.405Z,1017.79
2017-07-09T01:43:06.972Z,1017.75
2017-07-09T01:43:32.542Z,1017.73
2017-07-09T01:43:58.162Z,1017.74
2017-07-09T01:44:23.738Z,1017.75
2017-07-09T01:44:49.282Z,1017.77
2017-07-09T01:46:03.603Z,1017.77
2017-07-09T01:46:29.166Z,1017.73
2017-07-09T01:46:54.723Z,1017.72
2017-07-09T01:47:20.274Z,1017.73
2017-07-09T01:47:45.839Z,1017.77
2017-07-09T01:48:11.400Z,1017.74
2017-07-09T01:48:36.966Z,1017.74
2017-07-09T01:49:02.567Z,1017.78
2017-07-09T01:49:28.150Z,1017.76
2017-07-09T01:49:53.769Z,1017.77
2017-07-09T01:50:19.322Z,1017.76
2017-07-09T01:51:38.769Z,1017.74
2017-07-09T01:52:04.371Z,1017.72
2017-07-09T01:52:30.023Z,1017.75
2017-07-09T01:52:55.653Z,1017.73
2017-07-09T01:53:21.210Z,1017.7
2017-07-09T01:53:46.775Z,1017.71
2017-07-09T01:54:12.449Z,1017.67
2017-07-09T01:54:38.009Z,1017.7
2017-07-09T01:55:03.570Z,1017.69
2017-07-09T01:55:29.137Z,1017.67
2017-07-09T01:55:54.679Z,1017.69
2017-07-09T01:56:20.270Z,1017.66
2017-07-09T01:56:45.840Z,1017.68
2017-07-09T01:57:11.475Z,1017.65
2017-07-09T01:57:37.029Z,1017.64
2017-07-09T01:58:02.583Z,1017.61
2017-07-09T01:58:28.143Z,1017.61
2017-07-09T01:58:53.705Z,1017.6
2017-07-09T01:59:19.268Z,1017.57
2017-07-09T01:59:44.827Z,1017.6
2017-07-09T02:00:10.383Z,1017.56
2017-07-09T02:00:36.088Z,1017.54
2017-07-09T02:01:01.649Z,1017.55
2017-07-09T02:01:27.207Z,1017.53
2017-07-09T02:01:52.777Z,1017.57
2017-07-09T02:02:18.353Z,1017.53
2017-07-09T02:02:43.938Z,1017.56
2017-07-09T02:03:09.569Z,1017.57
2017-07-09T02:03:35.122Z,1017.61
2017-07-09T02:04:00.684Z,1017.59
2017-07-09T02:04:26.253Z,1017.58
2017-07-09T02:04:51.808Z,1017.58
2017-07-09T02:05:17.369Z,1017.55
2017-07-09T02:05:43.015Z,1017.58
2017-07-09T02:06:08.586Z,1017.61
2017-07-09T02:06:34.143Z,1017.6
2017-07-09T02:06:59.738Z,1017.56
2017-07-09T02:07:25.280Z,1017.56
2017-07-09T02:07:50.867Z,1017.57
2017-07-09T02:08:16.459Z,1017.54
2017-07-09T02:08:42.010Z,1017.55
2017-07-09T02:09:07.566Z,1017.48
2017-07-09T02:09:33.124Z,1017.48
2017-07-09T02:09:58.708Z,1017.51
2017-07-09T02:10:24.262Z,1017.5
2017-07-09T02:10:49.823Z,1017.45
2017-07-09T02:11:15.439Z,1017.44
2017-07-09T02:11:41.014Z,1017.44
2017-07-09T02:12:06.577Z,1017.45
2017-07-09T02:12:32.247Z,1017.46
2017-07-09T02:12:57.817Z,1017.41
2017-07-09T02:13:23.375Z,1017.41
2017-07-09T02:13:48.933Z,1017.42
2017-07-09T02:14:14.495Z,1017.4
2017-07-09T02:14:40.055Z,1017.43
2017-07-09T02:15:05.631Z,1017.39
2017-07-09T02:15:31.183Z,1017.43
2017-07-09T02:15:56.753Z,1017.43
2017-07-09T02:16:22.328Z,1017.44
2017-07-09T02:16:47.887Z,1017.44
2017-07-09T02:17:13.445Z,1017.49
2017-07-09T02:17:39.016Z,1017.52
2017-07-09T02:18:04.584Z,1017.54
2017-07-09T02:18:30.153Z,1017.58
2017-07-09T02:18:55.714Z,1017.56
2017-07-09T02:19:21.286Z,1017.57
2017-07-09T02:19:46.838Z,1017.55
2017-07-09T02:20:12.397Z,1017.58
2017-07-09T02:20:37.957Z,1017.62
2017-07-09T02:21:03.512Z,1017.64
2017-07-09T02:21:29.078Z,1017.62
2017-07-09T02:21:54.637Z,1017.65
2017-07-09T02:22:20.189Z,1017.65
2017-07-09T02:22:45.754Z,1017.63
2017-07-09T02:23:11.315Z,1017.66
2017-07-09T02:23:36.913Z,1017.67
2017-07-09T02:24:02.467Z,1017.68
2017-07-09T02:24:28.035Z,1017.64
2017-07-09T02:24:53.605Z,1017.68
2017-07-09T02:25:19.168Z,1017.68
2017-07-09T02:25:44.746Z,1017.7
2017-07-09T02:26:10.310Z,1017.65
2017-07-09T02:26:35.887Z,1017.69
2017-07-09T02:27:01.476Z,1017.69
2017-07-09T02:27:27.069Z,1017.7
2017-07-09T02:27:52.638Z,1017.71
2017-07-09T02:28:18.207Z,1017.69
2017-07-09T02:28:43.772Z,1017.69
2017-07-09T02:29:09.343Z,1017.7
2017-07-09T02:29:34.907Z,1017.65
2017-07-09T02:30:00.487Z,1017.68
2017-07-09T02:30:26.045Z,1017.68
2017-07-09T02:30:51.608Z,1017.71
2017-07-09T02:31:17.267Z,1017.66
2017-07-09T02:31:42.835Z,1017.67
2017-07-09T02:32:08.402Z,1017.66
2017-07-09T02:32:33.976Z,1017.66
2017-07-09T02:32:59.526Z,1017.63
2017-07-09T02:33:25.088Z,1017.64
2017-07-09T02:33:50.664Z,1017.7
2017-07-09T02:34:16.340Z,1017.64
2017-07-09T02:34:41.909Z,1017.67
2017-07-09T02:35:07.507Z,1017.69
2017-07-09T02:35:33.087Z,1017.64
2017-07-09T02:35:58.645Z,1017.7
2017-07-09T02:36:31.007Z,1017.69
2017-07-09T02:36:56.565Z,1017.72
2017-07-09T02:37:22.171Z,1017.69
2017-07-09T02:37:47.747Z,1017.68
2017-07-09T02:38:13.316Z,1017.69
2017-07-09T02:38:38.869Z,1017.7
2017-07-09T02:39:04.457Z,1017.65
2017-07-09T02:39:30.001Z,1017.67
2017-07-09T02:39:55.557Z,1017.69
2017-07-09T02:40:21.106Z,1017.63
2017-07-09T02:40:46.662Z,1017.66
2017-07-09T02:41:12.285Z,1017.62
2017-07-09T02:41:37.844Z,1017.63
2017-07-09T02:42:03.407Z,1017.58
2017-07-09T02:42:29.012Z,1017.57
2017-07-09T02:42:54.568Z,1017.58
2017-07-09T02:43:20.136Z,1017.55
2017-07-09T02:43:45.699Z,1017.55
2017-07-09T02:44:11.264Z,1017.58
2017-07-09T02:44:36.822Z,1017.55
2017-07-09T02:45:02.428Z,1017.55
2017-07-09T02:45:27.985Z,1017.58
2017-07-09T02:45:53.607Z,1017.62
2017-07-09T02:46:19.231Z,1017.58
2017-07-09T02:46:44.796Z,1017.52
2017-07-09T02:47:10.350Z,1017.59
2017-07-09T02:47:35.944Z,1017.58
2017-07-09T02:48:01.508Z,1017.57
2017-07-09T02:48:27.065Z,1017.58
2017-07-09T02:48:52.632Z,1017.55
2017-07-09T02:49:18.201Z,1017.52
2017-07-09T02:49:43.753Z,1017.56
2017-07-09T02:50:09.325Z,1017.52
2017-07-09T02:50:34.890Z,1017.5
2017-07-09T02:51:00.506Z,1017.5
2017-07-09T02:51:26.081Z,1017.52
2017-07-09T02:51:51.718Z,1017.46
2017-07-09T02:52:17.294Z,1017.46
2017-07-09T02:52:42.864Z,1017.47
2017-07-09T02:53:08.416Z,1017.46
2017-07-09T02:53:33.973Z,1017.48
2017-07-09T02:53:59.555Z,1017.49
2017-07-09T02:54:25.195Z,1017.48
2017-07-09T02:54:50.752Z,1017.46
2017-07-09T02:55:16.348Z,1017.5
2017-07-09T02:55:41.925Z,1017.46
2017-07-09T02:56:07.484Z,1017.44
2017-07-09T02:56:33.054Z,1017.48
2017-07-09T02:56:58.678Z,1017.47
2017-07-09T02:57:24.227Z,1017.47
2017-07-09T02:57:49.780Z,1017.54
2017-07-09T02:58:15.405Z,1017.54
2017-07-09T02:58:41.028Z,1017.55
2017-07-09T02:59:06.578Z,1017.53
2017-07-09T02:59:32.144Z,1017.5
2017-07-09T02:59:57.693Z,1017.56
2017-07-09T03:00:23.256Z,1017.52
2017-07-09T03:00:48.829Z,1017.56
2017-07-09T03:01:14.383Z,1017.56
2017-07-09T03:01:39.932Z,1017.54
2017-07-09T03:02:05.514Z,1017.57
2017-07-09T03:02:31.072Z,1017.55
2017-07-09T03:02:56.622Z,1017.5
2017-07-09T03:03:22.216Z,1017.51
2017-07-09T03:03:47.771Z,1017.52
2017-07-09T03:04:13.347Z,1017.49
2017-07-09T03:04:38.918Z,1017.54
2017-07-09T03:05:04.470Z,1017.54
2017-07-09T03:05:30.017Z,1017.5
2017-07-09T03:05:55.594Z,1017.6
2017-07-09T03:06:21.151Z,1017.59
2017-07-09T03:06:46.817Z,1017.57
2017-07-09T03:07:12.413Z,1017.59
2017-07-09T03:07:38.512Z,1017.65
2017-07-09T03:08:04.078Z,1017.61
2017-07-09T03:08:29.634Z,1017.64
2017-07-09T03:08:55.207Z,1017.64
2017-07-09T03:09:20.798Z,1017.66
2017-07-09T03:09:46.399Z,1017.65
2017-07-09T03:10:11.955Z,1017.68
2017-07-09T03:10:37.525Z,1017.66
2017-07-09T03:11:03.158Z,1017.7
2017-07-09T03:11:28.709Z,1017.68
2017-07-09T03:11:54.305Z,1017.67
2017-07-09T03:12:19.870Z,1017.63
2017-07-09T03:12:45.426Z,1017.68
2017-07-09T03:13:11.001Z,1017.65
2017-07-09T03:13:36.572Z,1017.65
2017-07-09T03:14:02.100Z,1017.62
2017-07-09T03:14:27.713Z,1017.63
2017-07-09T03:14:53.315Z,1017.61
2017-07-09T03:15:18.864Z,1017.57
2017-07-09T03:15:44.434Z,1017.54
2017-07-09T03:16:09.984Z,1017.51
2017-07-09T03:16:35.552Z,1017.53
2017-07-09T03:17:01.169Z,1017.49
2017-07-09T03:17:26.836Z,1017.49
2017-07-09T03:17:52.396Z,1017.46
2017-07-09T03:18:17.954Z,1017.47
2017-07-09T03:18:43.514Z,1017.45
2017-07-09T03:19:09.078Z,1017.46
2017-07-09T03:19:34.665Z,1017.44
2017-07-09T03:20:00.193Z,1017.48
2017-07-09T03:20:25.776Z,1017.47
2017-07-09T03:20:51.350Z,1017.46
2017-07-09T03:21:16.926Z,1017.47
2017-07-09T03:21:42.480Z,1017.51
2017-07-09T03:22:08.062Z,1017.51
2017-07-09T03:22:33.612Z,1017.53
2017-07-09T03:22:59.154Z,1017.49
2017-07-09T03:23:24.766Z,1017.52
2017-07-09T03:23:50.332Z,1017.54
2017-07-09T03:24:15.945Z,1017.48
2017-07-09T03:24:41.548Z,1017.54
2017-07-09T03:25:07.148Z,1017.53
2017-07-09T03:25:32.696Z,1017.51
2017-07-09T03:26:00.717Z,1017.55
2017-07-09T03:26:28.573Z,1017.54
2017-07-09T03:26:58.570Z,1017.54
2017-07-09T03:27:27.712Z,1017.52
2017-07-09T03:27:53.266Z,1017.54
2017-07-09T03:28:18.837Z,1017.53
2017-07-09T03:28:44.411Z,1017.55
2017-07-09T03:29:09.980Z,1017.58
2017-07-09T03:29:35.551Z,1017.62
2017-07-09T03:30:01.124Z,1017.6
2017-07-09T03:30:26.696Z,1017.61
2017-07-09T03:30:52.267Z,1017.6
2017-07-09T03:31:17.902Z,1017.61
2017-07-09T03:31:43.450Z,1017.64
2017-07-09T03:32:09.025Z,1017.62
2017-07-09T03:32:34.596Z,1017.65
2017-07-09T03:33:00.146Z,1017.67
2017-07-09T03:33:25.709Z,1017.65
2017-07-09T03:33:51.309Z,1017.65
2017-07-09T03:34:16.958Z,1017.68
2017-07-09T03:34:42.529Z,1017.71
2017-07-09T03:35:08.117Z,1017.72
2017-07-09T03:35:33.676Z,1017.74
2017-07-09T03:35:59.248Z,1017.67
2017-07-09T03:36:24.777Z,1017.74
2017-07-09T03:36:50.374Z,1017.72
2017-07-09T03:37:15.941Z,1017.72
2017-07-09T03:37:41.520Z,1017.7
2017-07-09T03:38:07.072Z,1017.69
2017-07-09T03:38:32.659Z,1017.7
2017-07-09T03:38:58.217Z,1017.67
2017-07-09T03:39:23.765Z,1017.7
2017-07-09T03:39:49.343Z,1017.69
2017-07-09T03:40:14.904Z,1017.67
2017-07-09T03:40:40.465Z,1017.69
2017-07-09T03:41:06.023Z,1017.69
2017-07-09T03:41:31.664Z,1017.74
2017-07-09T03:41:57.338Z,1017.71
2017-07-09T03:42:22.886Z,1017.71
2017-07-09T03:42:48.452Z,1017.76
2017-07-09T03:43:14.127Z,1017.75
2017-07-09T03:43:39.673Z,1017.78
2017-07-09T03:44:05.254Z,1017.75
2017-07-09T03:44:30.806Z,1017.79
2017-07-09T03:44:56.372Z,1017.81
2017-07-09T03:45:21.940Z,1017.77
2017-07-09T03:45:47.496Z,1017.79
2017-07-09T03:46:13.053Z,1017.76
2017-07-09T03:46:38.635Z,1017.8
2017-07-09T03:47:04.188Z,1017.77
2017-07-09T03:47:29.856Z,1017.74
2017-07-09T03:47:55.423Z,1017.77
2017-07-09T03:48:20.980Z,1017.75
2017-07-09T03:48:46.536Z,1017.75
2017-07-09T03:49:12.107Z,1017.73
2017-07-09T03:49:37.666Z,1017.77
2017-07-09T03:50:03.312Z,1017.77
2017-07-09T03:50:28.907Z,1017.76
2017-07-09T03:50:54.433Z,1017.79
2017-07-09T03:51:19.987Z,1017.77
2017-07-09T03:51:45.544Z,1017.79
2017-07-09T03:52:11.155Z,1017.82
2017-07-09T03:52:36.717Z,1017.81
2017-07-09T03:53:02.265Z,1017.79
2017-07-09T03:53:27.845Z,1017.82
2017-07-09T03:53:53.419Z,1017.76
2017-07-09T03:54:18.964Z,1017.78
2017-07-09T03:54:44.563Z,1017.76
2017-07-09T03:55:10.217Z,1017.72
2017-07-09T03:55:35.762Z,1017.76
2017-07-09T03:56:01.383Z,1017.77
2017-07-09T03:57:15.672Z,1017.79
2017-07-09T03:57:41.257Z,1017.77
2017-07-09T03:58:06.819Z,1017.8
2017-07-09T03:58:32.373Z,1017.78
2017-07-09T03:58:57.933Z,1017.81
2017-07-09T03:59:23.495Z,1017.82
2017-07-09T03:59:49.098Z,1017.84
2017-07-09T04:00:14.657Z,1017.83
2017-07-09T04:00:40.227Z,1017.81
2017-07-09T04:01:05.798Z,1017.8
2017-07-09T04:01:31.383Z,1017.78
2017-07-09T04:01:56.947Z,1017.83
2017-07-09T04:02:22.512Z,1017.79
2017-07-09T04:02:48.194Z,1017.81
2017-07-09T04:03:13.749Z,1017.77
2017-07-09T04:03:39.314Z,1017.81
2017-07-09T04:04:04.883Z,1017.77
2017-07-09T04:04:30.597Z,1017.77
2017-07-09T04:04:56.167Z,1017.78
2017-07-09T04:05:21.747Z,1017.78
2017-07-09T04:05:47.297Z,1017.76
2017-07-09T04:06:12.858Z,1017.77
2017-07-09T04:06:38.413Z,1017.77
2017-07-09T04:07:04.047Z,1017.78
2017-07-09T04:07:29.643Z,1017.79
2017-07-09T04:07:55.186Z,1017.79
2017-07-09T04:08:20.758Z,1017.8
2017-07-09T04:08:46.347Z,1017.83
2017-07-09T04:09:11.915Z,1017.83
2017-07-09T04:09:37.457Z,1017.87
2017-07-09T04:10:03.075Z,1017.79
2017-07-09T04:10:28.639Z,1017.81
2017-07-09T04:10:54.197Z,1017.82
2017-07-09T04:11:19.752Z,1017.84
2017-07-09T04:11:45.322Z,1017.82
2017-07-09T04:12:10.915Z,1017.82
2017-07-09T04:12:36.458Z,1017.83
2017-07-09T04:13:02.034Z,1017.83
2017-07-09T04:13:27.611Z,1017.81
2017-07-09T04:13:53.183Z,1017.77
2017-07-09T04:14:18.752Z,1017.73
2017-07-09T04:14:44.322Z,1017.79
2017-07-09T04:15:10.028Z,1017.77
2017-07-09T04:15:35.575Z,1017.77
2017-07-09T04:16:01.187Z,1017.73
2017-07-09T04:16:26.765Z,1017.8
2017-07-09T04:16:52.345Z,1017.75
2017-07-09T04:17:17.923Z,1017.77
2017-07-09T04:17:43.487Z,1017.77
2017-07-09T04:18:09.023Z,1017.75
2017-07-09T04:18:34.579Z,1017.75
2017-07-09T04:19:00.210Z,1017.75
2017-07-09T04:19:25.766Z,1017.73
2017-07-09T04:19:51.339Z,1017.72
2017-07-09T04:20:16.894Z,1017.75
2017-07-09T04:21:26.098Z,1017.71
2017-07-09T04:21:51.668Z,1017.74
2017-07-09T04:22:17.216Z,1017.71
2017-07-09T04:22:42.777Z,1017.72
2017-07-09T04:23:08.345Z,1017.7
2017-07-09T04:23:33.898Z,1017.68
2017-07-09T04:23:59.535Z,1017.68
2017-07-09T04:24:25.137Z,1017.65
2017-07-09T04:24:50.783Z,1017.69
2017-07-09T04:25:16.379Z,1017.66
2017-07-09T04:25:41.934Z,1017.67
2017-07-09T04:26:07.549Z,1017.67
2017-07-09T04:26:33.105Z,1017.68
2017-07-09T04:26:58.662Z,1017.62
2017-07-09T04:27:24.218Z,1017.6
2017-07-09T04:27:49.786Z,1017.59
2017-07-09T04:28:15.351Z,1017.6
2017-07-09T04:28:40.916Z,1017.56
2017-07-09T04:29:06.468Z,1017.55
2017-07-09T04:29:32.070Z,1017.55
2017-07-09T04:29:57.679Z,1017.52
2017-07-09T04:30:23.373Z,1017.51
2017-07-09T04:30:48.937Z,1017.51
2017-07-09T04:31:14.494Z,1017.48
2017-07-09T04:31:40.065Z,1017.45
2017-07-09T04:32:05.634Z,1017.46
2017-07-09T04:32:31.198Z,1017.44
2017-07-09T04:32:56.751Z,1017.41
2017-07-09T04:33:22.306Z,1017.43
2017-07-09T04:33:47.962Z,1017.44
2017-07-09T04:34:13.504Z,1017.37
2017-07-09T04:34:39.061Z,1017.42
2017-07-09T04:35:04.621Z,1017.38
2017-07-09T04:35:30.213Z,1017.39
2017-07-09T04:35:55.775Z,1017.39
2017-07-09T04:37:15.205Z,1017.4
2017-07-09T04:37:40.785Z,1017.44
2017-07-09T04:38:06.435Z,1017.41
2017-07-09T04:38:32.088Z,1017.37
2017-07-09T04:38:57.639Z,1017.38
2017-07-09T04:39:23.210Z,1017.39
2017-07-09T04:39:48.775Z,1017.37
2017-07-09T04:40:14.342Z,1017.4
2017-07-09T04:40:39.908Z,1017.42
2017-07-09T04:41:05.459Z,1017.4
2017-07-09T04:41:31.039Z,1017.39
2017-07-09T04:41:56.605Z,1017.41
2017-07-09T04:42:22.185Z,1017.45
2017-07-09T04:42:47.750Z,1017.43
2017-07-09T04:43:13.309Z,1017.46
2017-07-09T04:43:38.978Z,1017.45
2017-07-09T04:44:04.541Z,1017.45
2017-07-09T04:44:30.088Z,1017.46
2017-07-09T04:44:55.659Z,1017.45
2017-07-09T04:45:21.210Z,1017.44
2017-07-09T04:45:46.770Z,1017.46
2017-07-09T04:46:12.327Z,1017.43
2017-07-09T04:46:37.890Z,1017.44
2017-07-09T04:47:03.461Z,1017.41
2017-07-09T04:47:29.145Z,1017.41
2017-07-09T04:47:54.695Z,1017.44
2017-07-09T04:48:20.266Z,1017.48
2017-07-09T04:48:45.902Z,1017.49
2017-07-09T04:49:11.474Z,1017.46
2017-07-09T04:49:37.037Z,1017.48
2017-07-09T04:50:02.617Z,1017.48
2017-07-09T04:50:28.180Z,1017.54
2017-07-09T04:50:53.728Z,1017.57
2017-07-09T04:51:19.283Z,1017.59
2017-07-09T04:51:44.859Z,1017.56
2017-07-09T04:52:10.405Z,1017.61
2017-07-09T04:52:36.003Z,1017.58
2017-07-09T04:53:01.665Z,1017.62
2017-07-09T04:53:27.237Z,1017.6
2017-07-09T04:53:52.799Z,1017.62
2017-07-09T04:54:18.361Z,1017.65
2017-07-09T04:54:43.914Z,1017.62
2017-07-09T04:55:09.496Z,1017.61
2017-07-09T04:55:35.069Z,1017.63
2017-07-09T04:56:00.633Z,1017.62
2017-07-09T04:56:26.200Z,1017.58
2017-07-09T04:56:51.804Z,1017.61
2017-07-09T04:57:17.364Z,1017.61
2017-07-09T04:57:42.940Z,1017.62
2017-07-09T04:58:08.563Z,1017.64
2017-07-09T04:58:34.142Z,1017.65
2017-07-09T04:58:59.703Z,1017.63
2017-07-09T04:59:25.297Z,1017.64
2017-07-09T04:59:50.867Z,1017.68
2017-07-09T05:00:16.417Z,1017.7
2017-07-09T05:00:41.988Z,1017.68
2017-07-09T05:01:07.569Z,1017.7
2017-07-09T05:01:33.156Z,1017.71
2017-07-09T05:01:58.708Z,1017.71
2017-07-09T05:02:24.252Z,1017.71
2017-07-09T05:02:49.810Z,1017.74
2017-07-09T05:03:15.379Z,1017.71
2017-07-09T05:03:40.937Z,1017.76
2017-07-09T05:04:06.519Z,1017.74
2017-07-09T05:04:32.079Z,1017.75
2017-07-09T05:04:57.634Z,1017.75
2017-07-09T05:05:23.200Z,1017.77
2017-07-09T05:05:48.747Z,1017.77
2017-07-09T05:06:14.309Z,1017.75
2017-07-09T05:06:39.929Z,1017.76
2017-07-09T05:07:05.495Z,1017.78
2017-07-09T05:07:31.052Z,1017.77
2017-07-09T05:07:56.730Z,1017.82
2017-07-09T05:08:22.281Z,1017.79
2017-07-09T05:08:47.838Z,1017.76
2017-07-09T05:09:13.453Z,1017.76
2017-07-09T05:09:38.973Z,1017.71
2017-07-09T05:10:04.527Z,1017.8
2017-07-09T05:10:30.093Z,1017.79
2017-07-09T05:10:55.649Z,1017.81
2017-07-09T05:11:21.198Z,1017.77
2017-07-09T05:11:46.741Z,1017.79
2017-07-09T05:12:12.307Z,1017.8
2017-07-09T05:12:37.853Z,1017.79
2017-07-09T05:13:03.427Z,1017.81
2017-07-09T05:13:28.996Z,1017.82
2017-07-09T05:13:54.573Z,1017.82
2017-07-09T05:14:20.147Z,1017.8
2017-07-09T05:14:45.697Z,1017.81
2017-07-09T05:15:11.252Z,1017.77